Terminal Aerodrome Forecast
Issued by NWS

Home | Current Version | Previous Version | Graphics & Text | Print | Product List | Glossary On
Versions: 1 2 3 4 5 6 7 8 9 10 11 12 13 14 15 16 17 18 19 20 21 22 23 24 25 26 27 28 29 30 31 32 33 34 35 36 37 38 39 40 41 42 43 44 45 46 47 48 49 50
000
FTUS43 KLOT 022300
TAFGYY
TAF
KGYY 022336Z 0300/0324 16006KT P6SM BKN080 OVC100
     FM031000 15008KT P6SM VCSH BKN040 OVC080
     FM031100 16012KT 1SM -SN BR BKN010 OVC030
     FM031300 16012G18KT 1SM -PLSN BR OVC007
     FM031400 17015G22KT 2SM -FZRAPL BR OVC004
     FM031800 20015G24KT 3SM -SHRA BR OVC006
     FM032200 22014G21KT 5SM -DZ BR OVC006=

USA.gov is the U.S. government's official web portal to all federal, state and local government web resources and services.